sensor_id;sensor_type;location;lat;lon;timestamp;pressure;altitude;pressure_sealevel;temperature;humidity
30383;BME280;17179;48.022;7.858;2022-07-06T00:01:23;99409.00;;;18.21;41.20
30383;BME280;17179;48.022;7.858;2022-07-06T00:03:49;99407.94;;;18.17;40.81
30383;BME280;17179;48.022;7.858;2022-07-06T00:06:14;99403.84;;;18.14;41.90
30383;BME280;17179;48.022;7.858;2022-07-06T00:08:42;99410.72;;;18.11;40.79
30383;BME280;17179;48.022;7.858;2022-07-06T00:11:07;99403.91;;;18.09;41.69
30383;BME280;17179;48.022;7.858;2022-07-06T00:13:33;99415.44;;;18.06;41.09
30383;BME280;17179;48.022;7.858;2022-07-06T00:15:58;99407.78;;;18.02;41.34
30383;BME280;17179;48.022;7.858;2022-07-06T00:18:23;99414.91;;;17.98;41.00
30383;BME280;17179;48.022;7.858;2022-07-06T00:20:49;99409.75;;;17.97;41.21
30383;BME280;17179;48.022;7.858;2022-07-06T00:23:14;99410.31;;;17.94;41.16
30383;BME280;17179;48.022;7.858;2022-07-06T00:25:40;99413.34;;;17.92;42.00
30383;BME280;17179;48.022;7.858;2022-07-06T00:28:05;99413.91;;;17.89;41.64
30383;BME280;17179;48.022;7.858;2022-07-06T00:30:30;99414.50;;;17.86;41.50
30383;BME280;17179;48.022;7.858;2022-07-06T00:32:56;99418.59;;;17.83;41.73
30383;BME280;17179;48.022;7.858;2022-07-06T00:35:25;99418.06;;;17.81;42.12
30383;BME280;17179;48.022;7.858;2022-07-06T00:37:51;99420.28;;;17.79;41.93
30383;BME280;17179;48.022;7.858;2022-07-06T00:40:17;99403.63;;;17.75;41.82
30383;BME280;17179;48.022;7.858;2022-07-06T00:42:44;99402.28;;;17.73;41.86
30383;BME280;17179;48.022;7.858;2022-07-06T00:45:10;99402.84;;;17.70;42.09
30383;BME280;17179;48.022;7.858;2022-07-06T00:47:36;99405.84;;;17.68;42.27
30383;BME280;17179;48.022;7.858;2022-07-06T00:50:03;99406.44;;;17.65;42.11
30383;BME280;17179;48.022;7.858;2022-07-06T00:52:51;99410.00;;;17.65;41.70
30383;BME280;17179;48.022;7.858;2022-07-06T00:55:19;99408.38;;;17.59;41.82
30383;BME280;17179;48.022;7.858;2022-07-06T00:57:45;99401.28;;;17.53;42.11
30383;BME280;17179;48.022;7.858;2022-07-06T01:00:13;99403.72;;;17.54;41.86
30383;BME280;17179;48.022;7.858;2022-07-06T01:02:40;99400.22;;;17.49;42.47
30383;BME280;17179;48.022;7.858;2022-07-06T01:05:08;99402.41;;;17.47;42.35
30383;BME280;17179;48.022;7.858;2022-07-06T01:07:35;99400.25;;;17.43;42.85
30383;BME280;17179;48.022;7.858;2022-07-06T01:10:04;99409.28;;;17.44;41.91
30383;BME280;17179;48.022;7.858;2022-07-06T01:12:30;99393.19;;;17.37;41.88
30383;BME280;17179;48.022;7.858;2022-07-06T01:14:56;99394.84;;;17.33;41.63
30383;BME280;17179;48.022;7.858;2022-07-06T01:17:22;99395.41;;;17.30;41.82
30383;BME280;17179;48.022;7.858;2022-07-06T01:19:48;99393.25;;;17.27;41.96
30383;BME280;17179;48.022;7.858;2022-07-06T01:22:13;99395.75;;;17.23;42.35
30383;BME280;17179;48.022;7.858;2022-07-06T01:24:39;99399.03;;;17.20;42.33
30383;BME280;17179;48.022;7.858;2022-07-06T01:27:05;99389.50;;;17.17;41.68
30383;BME280;17179;48.022;7.858;2022-07-06T01:29:31;99386.47;;;17.14;42.56
30383;BME280;17179;48.022;7.858;2022-07-06T01:31:57;99389.78;;;17.11;42.55
30383;BME280;17179;48.022;7.858;2022-07-06T01:34:22;99391.16;;;17.08;42.73
30383;BME280;17179;48.022;7.858;2022-07-06T01:36:48;99396.38;;;17.04;42.80
30383;BME280;17179;48.022;7.858;2022-07-06T01:39:13;99386.84;;;17.02;43.07
30383;BME280;17179;48.022;7.858;2022-07-06T01:41:39;99383.84;;;16.98;43.77
30383;BME280;17179;48.022;7.858;2022-07-06T01:44:05;99387.13;;;16.95;43.12
30383;BME280;17179;48.022;7.858;2022-07-06T01:46:30;99382.22;;;16.92;43.41
30383;BME280;17179;48.022;7.858;2022-07-06T01:48:56;99385.50;;;16.89;43.60
30383;BME280;17179;48.022;7.858;2022-07-06T01:51:22;99383.06;;;16.87;43.92
30383;BME280;17179;48.022;7.858;2022-07-06T01:53:48;99385.53;;;16.83;43.82
30383;BME280;17179;48.022;7.858;2022-07-06T01:56:14;99382.50;;;16.80;43.86
30383;BME280;17179;48.022;7.858;2022-07-06T01:58:40;99375.69;;;16.77;44.07
30383;BME280;17179;48.022;7.858;2022-07-06T02:01:09;99383.63;;;16.79;43.58
30383;BME280;17179;48.022;7.858;2022-07-06T02:03:35;99390.19;;;16.72;44.02
30383;BME280;17179;48.022;7.858;2022-07-06T02:06:01;99381.75;;;16.69;43.67
30383;BME280;17179;48.022;7.858;2022-07-06T02:08:26;99383.09;;;16.66;43.91
30383;BME280;17179;48.022;7.858;2022-07-06T02:10:52;99377.38;;;16.63;43.03
30383;BME280;17179;48.022;7.858;2022-07-06T02:13:17;99384.22;;;16.60;43.47
30383;BME280;17179;48.022;7.858;2022-07-06T02:15:42;99387.78;;;16.55;43.65
30383;BME280;17179;48.022;7.858;2022-07-06T02:18:07;99388.31;;;16.52;42.47
30383;BME280;17179;48.022;7.858;2022-07-06T02:20:33;99391.34;;;16.51;43.76
30383;BME280;17179;48.022;7.858;2022-07-06T02:22:58;99394.63;;;16.47;43.43
30383;BME280;17179;48.022;7.858;2022-07-06T02:25:24;99402.28;;;16.45;43.86
30383;BME280;17179;48.022;7.858;2022-07-06T02:27:49;99405.56;;;16.42;43.75
30383;BME280;17179;48.022;7.858;2022-07-06T02:30:14;99398.75;;;16.40;43.42
30383;BME280;17179;48.022;7.858;2022-07-06T02:32:40;99401.22;;;16.36;43.49
30383;BME280;17179;48.022;7.858;2022-07-06T02:35:05;99406.13;;;16.34;43.40
30383;BME280;17179;48.022;7.858;2022-07-06T02:37:31;99403.13;;;16.30;43.91
30383;BME280;17179;48.022;7.858;2022-07-06T02:39:56;99410.78;;;16.28;44.06
30383;BME280;17179;48.022;7.858;2022-07-06T02:42:21;99405.06;;;16.24;44.35
30383;BME280;17179;48.022;7.858;2022-07-06T02:44:47;99406.69;;;16.20;44.12
30383;BME280;17179;48.022;7.858;2022-07-06T02:47:12;99402.59;;;16.18;44.35
30383;BME280;17179;48.022;7.858;2022-07-06T02:49:37;99408.59;;;16.14;44.56
30383;BME280;17179;48.022;7.858;2022-07-06T02:52:03;99413.78;;;16.11;44.94
30383;BME280;17179;48.022;7.858;2022-07-06T02:54:28;99408.91;;;16.08;44.85
30383;BME280;17179;48.022;7.858;2022-07-06T02:56:54;99408.34;;;16.06;45.11
30383;BME280;17179;48.022;7.858;2022-07-06T02:59:20;99422.53;;;16.02;45.22
30383;BME280;17179;48.022;7.858;2022-07-06T03:01:45;99417.63;;;15.99;45.20
30383;BME280;17179;48.022;7.858;2022-07-06T03:04:11;99425.53;;;15.96;45.70
30383;BME280;17179;48.022;7.858;2022-07-06T03:06:36;99425.78;;;15.94;45.21
30383;BME280;17179;48.022;7.858;2022-07-06T03:09:02;99427.13;;;15.92;45.39
30383;BME280;17179;48.022;7.858;2022-07-06T03:11:27;99426.03;;;15.87;45.80
30383;BME280;17179;48.022;7.858;2022-07-06T03:13:53;99421.69;;;15.86;45.26
30383;BME280;17179;48.022;7.858;2022-07-06T03:16:18;99428.78;;;15.82;45.30
30383;BME280;17179;48.022;7.858;2022-07-06T03:18:43;99425.50;;;15.80;46.01
30383;BME280;17179;48.022;7.858;2022-07-06T03:21:09;99428.78;;;15.77;45.74
30383;BME280;17179;48.022;7.858;2022-07-06T03:23:34;99434.47;;;15.75;45.62
30383;BME280;17179;48.022;7.858;2022-07-06T03:25:59;99426.84;;;15.72;46.03
30383;BME280;17179;48.022;7.858;2022-07-06T03:28:25;99426.31;;;15.70;46.19
30383;BME280;17179;48.022;7.858;2022-07-06T03:30:50;99423.03;;;15.68;45.82
30383;BME280;17179;48.022;7.858;2022-07-06T03:33:16;99431.47;;;15.66;46.18
30383;BME280;17179;48.022;7.858;2022-07-06T03:35:41;99431.19;;;15.63;45.85
30383;BME280;17179;48.022;7.858;2022-07-06T03:38:06;99427.94;;;15.61;46.20
30383;BME280;17179;48.022;7.858;2022-07-06T03:40:32;99421.09;;;15.58;46.22
30383;BME280;17179;48.022;7.858;2022-07-06T03:42:57;99428.72;;;15.56;45.93
30383;BME280;17179;48.022;7.858;2022-07-06T03:45:22;99421.91;;;15.53;46.24
30383;BME280;17179;48.022;7.858;2022-07-06T03:47:48;99432.28;;;15.51;46.47
30383;BME280;17179;48.022;7.858;2022-07-06T03:50:13;99429.28;;;15.48;47.02
30383;BME280;17179;48.022;7.858;2022-07-06T03:52:38;99430.34;;;15.47;46.68
30383;BME280;17179;48.022;7.858;2022-07-06T03:55:09;99427.63;;;15.47;46.81
30383;BME280;17179;48.022;7.858;2022-07-06T03:57:36;99431.72;;;15.44;46.73
30383;BME280;17179;48.022;7.858;2022-07-06T04:00:02;99426.78;;;15.41;46.98
30383;BME280;17179;48.022;7.858;2022-07-06T04:02:28;99426.22;;;15.39;46.66
30383;BME280;17179;48.022;7.858;2022-07-06T04:04:53;99423.78;;;15.37;46.97
30383;BME280;17179;48.022;7.858;2022-07-06T04:07:19;99429.22;;;15.37;47.25
30383;BME280;17179;48.022;7.858;2022-07-06T04:09:44;99427.88;;;15.35;47.27
30383;BME280;17179;48.022;7.858;2022-07-06T04:12:10;99429.50;;;15.36;46.92
30383;BME280;17179;48.022;7.858;2022-07-06T04:14:35;99433.56;;;15.33;47.25
30383;BME280;17179;48.022;7.858;2022-07-06T04:17:00;99440.94;;;15.33;47.72
30383;BME280;17179;48.022;7.858;2022-07-06T04:19:46;99449.69;;;15.35;47.38
30383;BME280;17179;48.022;7.858;2022-07-06T04:22:11;99450.75;;;15.34;47.41
30383;BME280;17179;48.022;7.858;2022-07-06T04:24:36;99444.22;;;15.35;47.74
30383;BME280;17179;48.022;7.858;2022-07-06T04:27:02;99441.50;;;15.35;48.14
30383;BME280;17179;48.022;7.858;2022-07-06T04:29:27;99438.78;;;15.35;48.11
30383;BME280;17179;48.022;7.858;2022-07-06T04:31:52;99448.59;;;15.36;47.72
30383;BME280;17179;48.022;7.858;2022-07-06T04:34:18;99444.75;;;15.37;48.15
30383;BME280;17179;48.022;7.858;2022-07-06T04:36:43;99446.41;;;15.38;48.42
30383;BME280;17179;48.022;7.858;2022-07-06T04:39:08;99445.31;;;15.39;48.45
30383;BME280;17179;48.022;7.858;2022-07-06T04:41:34;99443.13;;;15.41;48.36
30383;BME280;17179;48.022;7.858;2022-07-06T04:43:59;99456.25;;;15.44;48.11
30383;BME280;17179;48.022;7.858;2022-07-06T04:46:24;99452.16;;;15.47;47.68
30383;BME280;17179;48.022;7.858;2022-07-06T04:48:50;99458.97;;;15.49;47.68
30383;BME280;17179;48.022;7.858;2022-07-06T04:51:15;99451.34;;;15.51;47.46
30383;BME280;17179;48.022;7.858;2022-07-06T04:53:41;99453.53;;;15.54;47.17
30383;BME280;17179;48.022;7.858;2022-07-06T04:56:07;99459.81;;;15.60;48.00
30383;BME280;17179;48.022;7.858;2022-07-06T04:58:32;99453.84;;;15.63;46.79
30383;BME280;17179;48.022;7.858;2022-07-06T05:00:57;99457.41;;;15.69;46.61
30383;BME280;17179;48.022;7.858;2022-07-06T05:03:23;99462.03;;;15.74;46.99
30383;BME280;17179;48.022;7.858;2022-07-06T05:05:48;99462.56;;;15.81;46.38
30383;BME280;17179;48.022;7.858;2022-07-06T05:08:13;99462.59;;;15.86;45.92
30383;BME280;17179;48.022;7.858;2022-07-06T05:10:39;99464.50;;;15.91;45.46
30383;BME280;17179;48.022;7.858;2022-07-06T05:13:04;99456.34;;;15.96;44.99
30383;BME280;17179;48.022;7.858;2022-07-06T05:15:30;99458.00;;;16.02;44.11
30383;BME280;17179;48.022;7.858;2022-07-06T05:17:55;99458.00;;;16.08;44.92
30383;BME280;17179;48.022;7.858;2022-07-06T05:20:21;99459.91;;;16.12;45.44
30383;BME280;17179;48.022;7.858;2022-07-06T05:22:46;99456.94;;;16.19;45.59
30383;BME280;17179;48.022;7.858;2022-07-06T05:25:12;99467.28;;;16.28;45.45
30383;BME280;17179;48.022;7.858;2022-07-06T05:27:37;99469.19;;;16.32;44.66
30383;BME280;17179;48.022;7.858;2022-07-06T05:30:03;99461.81;;;16.38;43.96
30383;BME280;17179;48.022;7.858;2022-07-06T05:32:28;99470.81;;;16.44;44.37
30383;BME280;17179;48.022;7.858;2022-07-06T05:34:54;99468.91;;;16.49;43.89
30383;BME280;17179;48.022;7.858;2022-07-06T05:37:19;99473.81;;;16.53;43.53
30383;BME280;17179;48.022;7.858;2022-07-06T05:39:44;99477.06;;;16.60;43.82
30383;BME280;17179;48.022;7.858;2022-07-06T05:42:12;99471.59;;;16.65;43.62
30383;BME280;17179;48.022;7.858;2022-07-06T05:44:37;99470.75;;;16.70;43.87
30383;BME280;17179;48.022;7.858;2022-07-06T05:47:03;99472.97;;;16.73;43.61
30383;BME280;17179;48.022;7.858;2022-07-06T05:49:46;99481.13;;;16.78;43.97
30383;BME280;17179;48.022;7.858;2022-07-06T05:52:30;99482.25;;;16.82;43.38
30383;BME280;17179;48.022;7.858;2022-07-06T05:54:55;99478.13;;;16.85;43.50
30383;BME280;17179;48.022;7.858;2022-07-06T05:57:21;99475.41;;;16.90;43.63
30383;BME280;17179;48.022;7.858;2022-07-06T05:59:46;99478.41;;;16.94;43.54
30383;BME280;17179;48.022;7.858;2022-07-06T06:02:12;99480.28;;;16.99;44.55
30383;BME280;17179;48.022;7.858;2022-07-06T06:04:37;99486.00;;;17.02;43.20
30383;BME280;17179;48.022;7.858;2022-07-06T06:07:03;99487.09;;;17.06;43.69
30383;BME280;17179;48.022;7.858;2022-07-06T06:09:28;99489.28;;;17.10;44.02
30383;BME280;17179;48.022;7.858;2022-07-06T06:11:54;99490.06;;;17.15;43.69
30383;BME280;17179;48.022;7.858;2022-07-06T06:14:19;99482.94;;;17.19;44.00
30383;BME280;17179;48.022;7.858;2022-07-06T06:16:44;99488.41;;;17.25;43.20
30383;BME280;17179;48.022;7.858;2022-07-06T06:19:10;99486.75;;;17.29;43.31
30383;BME280;17179;48.022;7.858;2022-07-06T06:21:35;99483.16;;;17.34;43.29
30383;BME280;17179;48.022;7.858;2022-07-06T06:24:00;99486.16;;;17.37;43.16
30383;BME280;17179;48.022;7.858;2022-07-06T06:26:26;99484.50;;;17.41;43.03
30383;BME280;17179;48.022;7.858;2022-07-06T06:28:51;99483.91;;;17.44;42.50
30383;BME280;17179;48.022;7.858;2022-07-06T06:31:16;99486.09;;;17.48;43.16
30383;BME280;17179;48.022;7.858;2022-07-06T06:33:42;99484.44;;;17.52;42.76
30383;BME280;17179;48.022;7.858;2022-07-06T06:36:07;99483.03;;;17.54;42.32
30383;BME280;17179;48.022;7.858;2022-07-06T06:38:33;99486.84;;;17.59;42.81
30383;BME280;17179;48.022;7.858;2022-07-06T06:41:00;99490.41;;;17.64;42.70
30383;BME280;17179;48.022;7.858;2022-07-06T06:43:26;99478.88;;;17.67;42.75
30383;BME280;17179;48.022;7.858;2022-07-06T06:45:52;99482.69;;;17.72;42.47
30383;BME280;17179;48.022;7.858;2022-07-06T06:48:17;99493.63;;;17.77;43.18
30383;BME280;17179;48.022;7.858;2022-07-06T06:50:44;99489.22;;;17.81;42.98
30383;BME280;17179;48.022;7.858;2022-07-06T06:53:10;99478.50;;;17.85;42.33
30383;BME280;17179;48.022;7.858;2022-07-06T06:55:35;99486.41;;;17.92;42.27
30383;BME280;17179;48.022;7.858;2022-07-06T06:58:01;99485.56;;;17.96;42.64
30383;BME280;17179;48.022;7.858;2022-07-06T07:00:26;99485.00;;;17.99;42.39
30383;BME280;17179;48.022;7.858;2022-07-06T07:02:51;99484.94;;;18.05;42.72
30383;BME280;17179;48.022;7.858;2022-07-06T07:05:17;99484.09;;;18.09;42.84
30383;BME280;17179;48.022;7.858;2022-07-06T07:07:42;99485.66;;;18.16;42.40
30383;BME280;17179;48.022;7.858;2022-07-06T07:10:08;99485.66;;;18.21;43.10
30383;BME280;17179;48.022;7.858;2022-07-06T07:12:34;99487.81;;;18.24;43.17
30383;BME280;17179;48.022;7.858;2022-07-06T07:15:00;99494.06;;;18.30;43.08
30383;BME280;17179;48.022;7.858;2022-07-06T07:17:25;99494.28;;;18.33;43.18
30383;BME280;17179;48.022;7.858;2022-07-06T07:19:51;99493.75;;;18.36;42.78
30383;BME280;17179;48.022;7.858;2022-07-06T07:22:16;99492.56;;;18.43;43.08
30383;BME280;17179;48.022;7.858;2022-07-06T07:24:41;99489.84;;;18.48;43.24
30383;BME280;17179;48.022;7.858;2022-07-06T07:27:07;99489.25;;;18.51;42.69
30383;BME280;17179;48.022;7.858;2022-07-06T07:29:32;99487.28;;;18.57;42.36
30383;BME280;17179;48.022;7.858;2022-07-06T07:31:57;99481.44;;;18.64;42.78
30383;BME280;17179;48.022;7.858;2022-07-06T07:34:23;99481.41;;;18.69;43.08
30383;BME280;17179;48.022;7.858;2022-07-06T07:36:48;99490.69;;;18.73;42.38
30383;BME280;17179;48.022;7.858;2022-07-06T07:39:13;99482.41;;;18.78;42.66
30383;BME280;17179;48.022;7.858;2022-07-06T07:41:39;99489.47;;;18.84;41.93
30383;BME280;17179;48.022;7.858;2022-07-06T07:44:04;99478.44;;;18.90;42.57
30383;BME280;17179;48.022;7.858;2022-07-06T07:46:30;99483.03;;;18.94;42.11
30383;BME280;17179;48.022;7.858;2022-07-06T07:48:55;99486.53;;;19.00;42.04
30383;BME280;17179;48.022;7.858;2022-07-06T07:51:21;99484.06;;;19.04;41.92
30383;BME280;17179;48.022;7.858;2022-07-06T07:53:46;99489.47;;;19.09;41.74
30383;BME280;17179;48.022;7.858;2022-07-06T07:56:11;99487.78;;;19.13;42.43
30383;BME280;17179;48.022;7.858;2022-07-06T07:58:37;99492.91;;;19.20;42.04
30383;BME280;17179;48.022;7.858;2022-07-06T08:01:03;99495.88;;;19.24;42.51
30383;BME280;17179;48.022;7.858;2022-07-06T08:03:29;99491.16;;;19.29;41.00
30383;BME280;17179;48.022;7.858;2022-07-06T08:05:55;99493.84;;;19.35;41.43
30383;BME280;17179;48.022;7.858;2022-07-06T08:08:20;99497.34;;;19.40;41.80
30383;BME280;17179;48.022;7.858;2022-07-06T08:10:46;99490.66;;;19.47;40.72
30383;BME280;17179;48.022;7.858;2022-07-06T08:13:11;99488.13;;;19.50;41.54
30383;BME280;17179;48.022;7.858;2022-07-06T08:15:37;99494.38;;;19.56;40.91
30383;BME280;17179;48.022;7.858;2022-07-06T08:18:03;99499.50;;;19.63;40.98
30383;BME280;17179;48.022;7.858;2022-07-06T08:20:28;99492.31;;;19.67;40.91
30383;BME280;17179;48.022;7.858;2022-07-06T08:22:55;99505.66;;;19.74;40.76
30383;BME280;17179;48.022;7.858;2022-07-06T08:25:20;99514.31;;;19.81;41.39
30383;BME280;17179;48.022;7.858;2022-07-06T08:27:45;99500.56;;;19.86;41.12
30383;BME280;17179;48.022;7.858;2022-07-06T08:30:11;99500.97;;;19.94;40.62
30383;BME280;17179;48.022;7.858;2022-07-06T08:32:41;99502.84;;;19.98;40.08
30383;BME280;17179;48.022;7.858;2022-07-06T08:35:07;99499.75;;;20.05;39.80
30383;BME280;17179;48.022;7.858;2022-07-06T08:37:33;99499.97;;;20.09;41.37
30383;BME280;17179;48.022;7.858;2022-07-06T08:39:58;99494.38;;;20.14;39.45
30383;BME280;17179;48.022;7.858;2022-07-06T08:42:34;99499.81;;;20.19;39.18
30383;BME280;17179;48.022;7.858;2022-07-06T08:45:05;99492.56;;;20.23;38.79
30383;BME280;17179;48.022;7.858;2022-07-06T08:47:32;99502.97;;;20.26;38.66
30383;BME280;17179;48.022;7.858;2022-07-06T08:50:02;99502.06;;;20.31;40.19
30383;BME280;17179;48.022;7.858;2022-07-06T08:52:27;99495.97;;;20.34;39.96
30383;BME280;17179;48.022;7.858;2022-07-06T08:54:53;99493.97;;;20.40;39.47
30383;BME280;17179;48.022;7.858;2022-07-06T08:57:19;99495.78;;;20.45;38.88
30383;BME280;17179;48.022;7.858;2022-07-06T08:59:44;99494.91;;;20.49;38.60
30383;BME280;17179;48.022;7.858;2022-07-06T09:02:10;99494.78;;;20.55;38.72
30383;BME280;17179;48.022;7.858;2022-07-06T09:04:37;99498.78;;;20.63;39.16
30383;BME280;17179;48.022;7.858;2022-07-06T09:07:03;99500.34;;;20.69;39.92
30383;BME280;17179;48.022;7.858;2022-07-06T09:09:29;99493.66;;;20.75;38.68
30383;BME280;17179;48.022;7.858;2022-07-06T09:11:56;99506.97;;;20.82;38.21
30383;BME280;17179;48.022;7.858;2022-07-06T09:14:21;99501.88;;;20.89;38.78
30383;BME280;17179;48.022;7.858;2022-07-06T09:16:51;99510.47;;;21.02;38.28
30383;BME280;17179;48.022;7.858;2022-07-06T09:19:17;99509.84;;;21.05;37.53
30383;BME280;17179;48.022;7.858;2022-07-06T09:21:43;99508.31;;;21.13;38.21
30383;BME280;17179;48.022;7.858;2022-07-06T09:24:10;99513.38;;;21.19;37.75
30383;BME280;17179;48.022;7.858;2022-07-06T09:26:36;99522.06;;;21.27;37.18
30383;BME280;17179;48.022;7.858;2022-07-06T09:29:02;99519.72;;;21.34;37.96
30383;BME280;17179;48.022;7.858;2022-07-06T09:31:28;99512.50;;;21.38;37.19
30383;BME280;17179;48.022;7.858;2022-07-06T09:34:02;99510.03;;;21.51;37.48
30383;BME280;17179;48.022;7.858;2022-07-06T09:36:47;99508.50;;;21.59;38.04
30383;BME280;17179;48.022;7.858;2022-07-06T09:41:51;99531.59;;;21.72;38.35
30383;BME280;17179;48.022;7.858;2022-07-06T09:44:22;99526.97;;;21.81;36.07
30383;BME280;17179;48.022;7.858;2022-07-06T09:46:48;99523.31;;;21.86;36.38
30383;BME280;17179;48.022;7.858;2022-07-06T09:49:17;99524.69;;;21.97;36.23
30383;BME280;17179;48.022;7.858;2022-07-06T09:51:44;99533.66;;;22.03;37.15
30383;BME280;17179;48.022;7.858;2022-07-06T09:54:10;99523.03;;;22.10;36.08
30383;BME280;17179;48.022;7.858;2022-07-06T09:56:39;99533.19;;;22.24;35.83
30383;BME280;17179;48.022;7.858;2022-07-06T09:59:08;99528.53;;;22.33;35.38
30383;BME280;17179;48.022;7.858;2022-07-06T10:01:35;99530.03;;;22.40;36.34
30383;BME280;17179;48.022;7.858;2022-07-06T10:04:00;99530.91;;;22.49;35.19
30383;BME280;17179;48.022;7.858;2022-07-06T10:06:26;99522.38;;;22.59;34.89
30383;BME280;17179;48.022;7.858;2022-07-06T10:08:55;99522.94;;;22.70;34.69
30383;BME280;17179;48.022;7.858;2022-07-06T10:11:23;99519.44;;;22.79;34.18
30383;BME280;17179;48.022;7.858;2022-07-06T10:13:50;99516.38;;;22.89;34.14
30383;BME280;17179;48.022;7.858;2022-07-06T10:16:20;99525.66;;;23.02;34.09
30383;BME280;17179;48.022;7.858;2022-07-06T10:18:47;99517.13;;;23.13;32.63
30383;BME280;17179;48.022;7.858;2022-07-06T10:21:12;99514.06;;;23.23;32.00
30383;BME280;17179;48.022;7.858;2022-07-06T10:23:38;99517.84;;;23.36;32.36
30383;BME280;17179;48.022;7.858;2022-07-06T10:26:05;99511.72;;;23.48;31.48
30383;BME280;17179;48.022;7.858;2022-07-06T10:28:31;99503.94;;;23.59;30.88
30383;BME280;17179;48.022;7.858;2022-07-06T10:30:57;99508.16;;;23.65;29.71
30383;BME280;17179;48.022;7.858;2022-07-06T10:33:23;99508.66;;;23.76;30.25
30383;BME280;17179;48.022;7.858;2022-07-06T10:35:49;99509.47;;;23.86;31.12
30383;BME280;17179;48.022;7.858;2022-07-06T10:38:14;99514.19;;;23.94;31.61
30383;BME280;17179;48.022;7.858;2022-07-06T10:40:41;99517.91;;;23.98;30.46
30383;BME280;17179;48.022;7.858;2022-07-06T10:43:51;99505.59;;;24.13;32.22
30383;BME280;17179;48.022;7.858;2022-07-06T10:46:17;99511.91;;;24.14;31.60
30383;BME280;17179;48.022;7.858;2022-07-06T10:48:45;99506.22;;;24.19;30.78
30383;BME280;17179;48.022;7.858;2022-07-06T10:51:11;99501.50;;;24.29;30.39
30383;BME280;17179;48.022;7.858;2022-07-06T10:53:39;99504.09;;;24.34;30.93
30383;BME280;17179;48.022;7.858;2022-07-06T10:56:06;99506.19;;;24.37;30.66
30383;BME280;17179;48.022;7.858;2022-07-06T10:58:50;99509.91;;;24.50;31.59
30383;BME280;17179;48.022;7.858;2022-07-06T11:01:20;99506.81;;;24.52;30.39
30383;BME280;17179;48.022;7.858;2022-07-06T11:04:07;99503.84;;;24.57;30.57
30383;BME280;17179;48.022;7.858;2022-07-06T11:06:33;99499.94;;;24.67;31.16
30383;BME280;17179;48.022;7.858;2022-07-06T11:09:09;99504.47;;;24.71;29.82
30383;BME280;17179;48.022;7.858;2022-07-06T11:19:16;99495.97;;;25.16;28.42
30383;BME280;17179;48.022;7.858;2022-07-06T11:22:08;99495.41;;;25.31;28.37
30383;BME280;17179;48.022;7.858;2022-07-06T11:24:44;99495.84;;;25.42;30.84
30383;BME280;17179;48.022;7.858;2022-07-06T11:27:09;99488.09;;;25.57;28.54
30383;BME280;17179;48.022;7.858;2022-07-06T11:29:35;99485.38;;;25.70;27.94
30383;BME280;17179;48.022;7.858;2022-07-06T11:32:05;99496.69;;;25.86;29.06
30383;BME280;17179;48.022;7.858;2022-07-06T11:34:32;99480.91;;;25.99;27.10
30383;BME280;17179;48.022;7.858;2022-07-06T11:37:06;99480.75;;;26.17;26.72
30383;BME280;17179;48.022;7.858;2022-07-06T11:39:33;99482.19;;;26.35;27.03
30383;BME280;17179;48.022;7.858;2022-07-06T11:42:00;99481.78;;;26.46;26.37
30383;BME280;17179;48.022;7.858;2022-07-06T11:44:26;99488.25;;;26.63;25.95
30383;BME280;17179;48.022;7.858;2022-07-06T11:46:52;99475.69;;;26.78;26.60
30383;BME280;17179;48.022;7.858;2022-07-06T11:49:18;99477.66;;;26.90;26.72
30383;BME280;17179;48.022;7.858;2022-07-06T11:51:45;99483.66;;;27.04;26.41
30383;BME280;17179;48.022;7.858;2022-07-06T11:54:18;99480.19;;;27.20;26.66
30383;BME280;17179;48.022;7.858;2022-07-06T11:56:54;99484.66;;;27.37;27.09
30383;BME280;17179;48.022;7.858;2022-07-06T11:59:22;99482.69;;;27.50;25.98
30383;BME280;17179;48.022;7.858;2022-07-06T12:01:48;99470.63;;;27.71;27.61
30383;BME280;17179;48.022;7.858;2022-07-06T12:04:13;99470.06;;;27.94;25.65
30383;BME280;17179;48.022;7.858;2022-07-06T12:06:39;99465.47;;;28.14;23.49
30383;BME280;17179;48.022;7.858;2022-07-06T12:09:04;99466.22;;;28.44;24.84
30383;BME280;17179;48.022;7.858;2022-07-06T12:11:36;99468.03;;;28.68;23.87
30383;BME280;17179;48.022;7.858;2022-07-06T12:14:12;99465.78;;;28.90;23.80
30383;BME280;17179;48.022;7.858;2022-07-06T12:16:38;99460.41;;;29.17;24.14
30383;BME280;17179;48.022;7.858;2022-07-06T12:19:05;99459.00;;;29.43;22.61
30383;BME280;17179;48.022;7.858;2022-07-06T12:21:31;99464.34;;;29.72;23.62
30383;BME280;17179;48.022;7.858;2022-07-06T12:23:57;99455.34;;;29.99;22.80
30383;BME280;17179;48.022;7.858;2022-07-06T12:26:24;99463.09;;;30.29;24.23
30383;BME280;17179;48.022;7.858;2022-07-06T12:29:07;99459.66;;;30.63;23.21
30383;BME280;17179;48.022;7.858;2022-07-06T12:31:37;99460.09;;;30.89;21.26
30383;BME280;17179;48.022;7.858;2022-07-06T12:34:04;99457.25;;;31.16;23.54
30383;BME280;17179;48.022;7.858;2022-07-06T12:36:30;99459.28;;;31.46;23.24
30383;BME280;17179;48.022;7.858;2022-07-06T12:38:55;99455.66;;;31.76;22.81
30383;BME280;17179;48.022;7.858;2022-07-06T12:41:25;99456.41;;;32.08;21.66
30383;BME280;17179;48.022;7.858;2022-07-06T12:44:03;99446.72;;;32.40;20.99
30383;BME280;17179;48.022;7.858;2022-07-06T12:46:31;99450.94;;;32.68;20.42
30383;BME280;17179;48.022;7.858;2022-07-06T12:48:58;99451.97;;;32.98;21.42
30383;BME280;17179;48.022;7.858;2022-07-06T12:51:24;99454.56;;;33.28;21.00
30383;BME280;17179;48.022;7.858;2022-07-06T12:53:49;99448.25;;;33.53;21.11
30383;BME280;17179;48.022;7.858;2022-07-06T12:56:15;99453.56;;;33.84;20.71
30383;BME280;17179;48.022;7.858;2022-07-06T12:59:00;99448.44;;;34.16;20.51
30383;BME280;17179;48.022;7.858;2022-07-06T13:01:26;99458.50;;;34.35;19.59
30383;BME280;17179;48.022;7.858;2022-07-06T13:03:56;99450.84;;;34.65;19.63
30383;BME280;17179;48.022;7.858;2022-07-06T13:06:33;99446.41;;;34.86;19.99
30383;BME280;17179;48.022;7.858;2022-07-06T13:08:59;99446.00;;;34.98;19.63